createdAt,value
2017-11-08T00:00:39.812Z,964.98
2017-11-08T00:01:39.903Z,964.96
2017-11-08T00:02:39.792Z,964.96
2017-11-08T00:03:39.784Z,964.94
2017-11-08T00:04:39.777Z,964.94
2017-11-08T00:05:39.765Z,964.93
2017-11-08T00:06:39.754Z,964.95
2017-11-08T00:07:39.744Z,964.98
2017-11-08T00:08:39.736Z,964.96
2017-11-08T00:09:39.724Z,964.97
2017-11-08T00:10:39.716Z,964.99
2017-11-08T00:11:39.707Z,965
2017-11-08T00:12:39.703Z,965.04
2017-11-08T00:13:39.688Z,964.97
2017-11-08T00:14:39.679Z,965.02
2017-11-08T00:15:39.670Z,965.01
2017-11-08T00:16:39.659Z,964.98
2017-11-08T00:17:39.651Z,965
2017-11-08T00:18:39.642Z,964.97
2017-11-08T00:19:39.633Z,964.98
2017-11-08T00:20:39.623Z,964.99
2017-11-08T00:21:39.614Z,964.98
2017-11-08T00:22:39.604Z,965.01
2017-11-08T00:23:39.595Z,965.01
2017-11-08T00:24:39.584Z,965.04
2017-11-08T00:25:39.575Z,965
2017-11-08T00:26:39.565Z,965.03
2017-11-08T00:27:39.556Z,965
2017-11-08T00:28:39.546Z,965
2017-11-08T00:29:39.538Z,965
2017-11-08T00:30:39.530Z,965.06
2017-11-08T00:31:39.522Z,965.02
2017-11-08T00:32:39.610Z,965.04
2017-11-08T00:33:39.501Z,965.01
2017-11-08T00:34:39.491Z,964.98
2017-11-08T00:35:39.482Z,965.03
2017-11-08T00:36:39.470Z,965.01
2017-11-08T00:37:39.461Z,965.04
2017-11-08T00:38:39.452Z,965.02
2017-11-08T00:39:39.445Z,965.04
2017-11-08T00:40:39.433Z,965.04
2017-11-08T00:41:39.424Z,965.05
2017-11-08T00:42:39.414Z,965.04
2017-11-08T00:43:39.405Z,965.03
2017-11-08T00:44:39.395Z,965.09
2017-11-08T00:45:39.386Z,965.05
2017-11-08T00:46:39.377Z,965.06
2017-11-08T00:47:39.366Z,965.1
2017-11-08T00:48:39.358Z,965.09
2017-11-08T00:49:39.350Z,965.09
2017-11-08T00:50:39.339Z,965.09
2017-11-08T00:51:39.329Z,965.07
2017-11-08T00:52:39.319Z,965.08
2017-11-08T00:53:39.309Z,965.09
2017-11-08T00:54:39.301Z,965.08
2017-11-08T00:55:39.291Z,965.07
2017-11-08T00:56:39.282Z,965.1
2017-11-08T00:57:39.272Z,965.07
2017-11-08T00:58:39.262Z,965.07
2017-11-08T00:59:39.252Z,965.09
2017-11-08T01:00:39.244Z,965.05
2017-11-08T01:01:39.234Z,965.09
2017-11-08T01:02:39.258Z,965.08
2017-11-08T01:03:39.216Z,965.07
2017-11-08T01:04:39.205Z,965.09
2017-11-08T01:05:39.197Z,965.06
2017-11-08T01:06:39.189Z,965.05
2017-11-08T01:07:39.177Z,965.07
2017-11-08T01:08:39.166Z,965.05
2017-11-08T01:09:39.158Z,965.04
2017-11-08T01:10:39.150Z,964.99
2017-11-08T01:11:39.139Z,965.04
2017-11-08T01:12:39.128Z,965.01
2017-11-08T01:13:39.119Z,964.99
2017-11-08T01:14:39.111Z,965.03
2017-11-08T01:15:39.100Z,965.04
2017-11-08T01:16:39.092Z,965.03
2017-11-08T01:17:39.083Z,965
2017-11-08T01:18:39.072Z,965.01
2017-11-08T01:19:39.062Z,965.04
2017-11-08T01:20:39.153Z,965.03
2017-11-08T01:21:39.044Z,965.04
2017-11-08T01:22:39.033Z,965.04
2017-11-08T01:23:39.024Z,965.06
2017-11-08T01:24:39.016Z,965.01
2017-11-08T01:25:39.007Z,965.02
2017-11-08T01:26:38.996Z,964.99
2017-11-08T01:27:38.987Z,965.01
2017-11-08T01:28:38.977Z,965
2017-11-08T01:29:38.969Z,965.06
2017-11-08T01:30:38.965Z,965.11
2017-11-08T01:31:38.950Z,965.07
2017-11-08T01:32:39.041Z,965.03
2017-11-08T01:33:38.928Z,965.07
2017-11-08T01:34:38.920Z,965.08
2017-11-08T01:35:38.910Z,965.04
2017-11-08T01:36:39.002Z,965.08
2017-11-08T01:37:38.890Z,965.08
2017-11-08T01:38:38.882Z,965.07
2017-11-08T01:39:38.872Z,965.09
2017-11-08T01:40:38.864Z,965.05
2017-11-08T01:41:38.853Z,965.1
2017-11-08T01:42:38.847Z,965.1
2017-11-08T01:43:38.840Z,965.09
2017-11-08T01:44:38.823Z,965.08
2017-11-08T01:45:38.813Z,965.07
2017-11-08T01:46:38.804Z,965.09
2017-11-08T01:47:38.803Z,965.12
2017-11-08T01:48:38.786Z,965.09
2017-11-08T01:49:38.776Z,965.1
2017-11-08T01:50:38.768Z,965.09
2017-11-08T01:51:38.758Z,965.14
2017-11-08T01:52:38.748Z,965.12
2017-11-08T01:53:38.739Z,965.13
2017-11-08T01:54:38.729Z,965.12
2017-11-08T01:55:38.720Z,965.14
2017-11-08T01:56:38.710Z,965.18
2017-11-08T01:57:38.701Z,965.16
2017-11-08T01:58:38.692Z,965.14
2017-11-08T01:59:38.682Z,965.2
2017-11-08T02:00:38.672Z,965.17
2017-11-08T02:01:38.663Z,965.19
2017-11-08T02:02:38.653Z,965.22
2017-11-08T02:03:38.668Z,965.22
2017-11-08T02:04:38.635Z,965.2
2017-11-08T02:05:38.626Z,965.21
2017-11-08T02:06:38.615Z,965.22
2017-11-08T02:07:38.605Z,965.18
2017-11-08T02:08:38.596Z,965.16
2017-11-08T02:09:38.587Z,965.18
2017-11-08T02:10:38.577Z,965.22
2017-11-08T02:11:38.566Z,965.21
2017-11-08T02:12:38.558Z,965.19
2017-11-08T02:13:38.548Z,965.21
2017-11-08T02:14:38.539Z,965.23
2017-11-08T02:15:38.529Z,965.19
2017-11-08T02:16:38.518Z,965.21
2017-11-08T02:17:38.513Z,965.18
2017-11-08T02:18:38.500Z,965.16
2017-11-08T02:19:38.492Z,965.13
2017-11-08T02:20:38.481Z,965.12
2017-11-08T02:21:38.471Z,965.15
2017-11-08T02:22:38.462Z,965.13
2017-11-08T02:23:38.452Z,965.1
2017-11-08T02:24:38.443Z,965.11
2017-11-08T02:25:38.433Z,965.1
2017-11-08T02:26:38.424Z,965.07
2017-11-08T02:27:38.415Z,965.1
2017-11-08T02:28:38.409Z,965.07
2017-11-08T02:29:38.395Z,965.05
2017-11-08T02:30:38.399Z,965.09
2017-11-08T02:31:38.384Z,965.09
2017-11-08T02:32:38.371Z,965.13
2017-11-08T02:33:38.458Z,965.09
2017-11-08T02:34:38.348Z,965.06
2017-11-08T02:35:38.337Z,965.09
2017-11-08T02:36:38.328Z,965.1
2017-11-08T02:37:38.319Z,965.08
2017-11-08T02:38:38.310Z,965.1
2017-11-08T02:39:38.301Z,965.06
2017-11-08T02:40:38.291Z,965.09
2017-11-08T02:41:38.281Z,965.09
2017-11-08T02:42:38.273Z,965.14
2017-11-08T02:43:38.263Z,965.14
2017-11-08T02:44:38.254Z,965.16
2017-11-08T02:45:38.244Z,965.13
2017-11-08T02:46:38.231Z,965.14
2017-11-08T02:47:38.224Z,965.19
2017-11-08T02:48:38.215Z,965.2
2017-11-08T02:49:38.213Z,965.15
2017-11-08T02:50:38.196Z,965.18
2017-11-08T02:51:38.185Z,965.13
2017-11-08T02:52:38.177Z,965.16
2017-11-08T02:53:38.168Z,965.2
2017-11-08T02:54:38.158Z,965.17
2017-11-08T02:55:38.148Z,965.19
2017-11-08T02:56:38.146Z,965.14
2017-11-08T02:57:38.133Z,965.18
2017-11-08T02:58:38.119Z,965.23
2017-11-08T02:59:38.110Z,965.2
2017-11-08T03:00:38.100Z,965.21
2017-11-08T03:01:38.090Z,965.17
2017-11-08T03:02:38.081Z,965.2
2017-11-08T03:03:38.083Z,965.16
2017-11-08T03:04:38.063Z,965.18
2017-11-08T03:05:38.051Z,965.17
2017-11-08T03:06:38.048Z,965.19
2017-11-08T03:07:38.034Z,965.16
2017-11-08T03:08:38.024Z,965.15
2017-11-08T03:09:38.015Z,965.16
2017-11-08T03:10:38.105Z,965.2
2017-11-08T03:11:38.010Z,965.16
2017-11-08T03:12:37.988Z,965.15
2017-11-08T03:13:37.977Z,965.17
2017-11-08T03:14:37.966Z,965.16
2017-11-08T03:15:37.959Z,965.14
2017-11-08T03:16:37.949Z,965.15
2017-11-08T03:17:37.940Z,965.15
2017-11-08T03:18:37.929Z,965.13
2017-11-08T03:19:37.920Z,965.12
2017-11-08T03:20:37.913Z,965.13
2017-11-08T03:21:37.900Z,965.12
2017-11-08T03:22:37.891Z,965.14
2017-11-08T03:23:37.882Z,965.12
2017-11-08T03:24:37.872Z,965.16
2017-11-08T03:25:37.863Z,965.16
2017-11-08T03:26:37.854Z,965.11
2017-11-08T03:27:37.842Z,965.11
2017-11-08T03:28:37.935Z,965.1
2017-11-08T03:29:37.826Z,965.12
2017-11-08T03:30:37.821Z,965.11
2017-11-08T03:31:37.807Z,965.13
2017-11-08T03:32:37.805Z,965.13
2017-11-08T03:33:37.792Z,965.12
2017-11-08T03:34:37.786Z,965.13
2017-11-08T03:35:37.770Z,965.14
2017-11-08T03:36:37.759Z,965.15
2017-11-08T03:37:37.749Z,965.1
2017-11-08T03:38:37.742Z,965.17
2017-11-08T03:39:37.830Z,965.18
2017-11-08T03:40:37.721Z,965.16
2017-11-08T03:41:37.711Z,965.17
2017-11-08T03:42:37.813Z,965.19
2017-11-08T03:43:37.694Z,965.17
2017-11-08T03:44:37.683Z,965.24
2017-11-08T03:45:37.672Z,965.25
2017-11-08T03:46:37.665Z,965.26
2017-11-08T03:47:37.655Z,965.26
2017-11-08T03:48:37.645Z,965.23
2017-11-08T03:49:37.639Z,965.22
2017-11-08T03:50:37.626Z,965.28
2017-11-08T03:51:37.617Z,965.25
2017-11-08T03:52:37.608Z,965.27
2017-11-08T03:53:37.598Z,965.26
2017-11-08T03:54:37.588Z,965.24
2017-11-08T03:55:37.579Z,965.28
2017-11-08T03:56:37.568Z,965.28
2017-11-08T03:57:37.559Z,965.29
2017-11-08T03:58:37.551Z,965.28
2017-11-08T03:59:37.540Z,965.27
2017-11-08T04:00:37.538Z,965.36
2017-11-08T04:01:37.526Z,965.35
2017-11-08T04:02:37.511Z,965.41
2017-11-08T04:03:37.502Z,965.41
2017-11-08T04:04:37.491Z,965.4
2017-11-08T04:05:37.482Z,965.4
2017-11-08T04:06:37.474Z,965.42
2017-11-08T04:07:37.563Z,965.4
2017-11-08T04:08:37.454Z,965.42
2017-11-08T04:09:37.453Z,965.42
2017-11-08T04:10:37.435Z,965.4
2017-11-08T04:11:37.429Z,965.42
2017-11-08T04:12:37.416Z,965.45
2017-11-08T04:13:37.408Z,965.41
2017-11-08T04:14:37.398Z,965.4
2017-11-08T04:15:37.386Z,965.42
2017-11-08T04:16:37.378Z,965.41
2017-11-08T04:17:37.368Z,965.45
2017-11-08T04:18:37.359Z,965.44
2017-11-08T04:19:37.355Z,965.45
2017-11-08T04:20:37.348Z,965.42
2017-11-08T04:21:37.330Z,965.43
2017-11-08T04:22:37.321Z,965.49
2017-11-08T04:23:37.423Z,965.48
2017-11-08T04:24:37.302Z,965.43
2017-11-08T04:25:37.292Z,965.45
2017-11-08T04:26:37.282Z,965.45
2017-11-08T04:27:37.273Z,965.44
2017-11-08T04:28:37.263Z,965.46
2017-11-08T04:29:37.255Z,965.44
2017-11-08T04:30:37.245Z,965.48
2017-11-08T04:31:37.235Z,965.45
2017-11-08T04:32:37.225Z,965.45
2017-11-08T04:33:37.214Z,965.47
2017-11-08T04:34:37.206Z,965.49
2017-11-08T04:35:37.196Z,965.46
2017-11-08T04:36:37.186Z,965.47
2017-11-08T04:37:37.176Z,965.49
2017-11-08T04:38:37.167Z,965.46
2017-11-08T04:39:37.158Z,965.45
2017-11-08T04:40:37.147Z,965.49
2017-11-08T04:41:37.139Z,965.46
2017-11-08T04:42:37.130Z,965.48
2017-11-08T04:43:37.120Z,965.44
2017-11-08T04:44:37.109Z,965.46
2017-11-08T04:45:37.102Z,965.49
2017-11-08T04:46:37.092Z,965.49
2017-11-08T04:47:37.081Z,965.47
2017-11-08T04:48:37.072Z,965.51
2017-11-08T04:49:37.069Z,965.51
2017-11-08T04:50:37.054Z,965.5
2017-11-08T04:51:37.042Z,965.51
2017-11-08T04:52:37.034Z,965.5
2017-11-08T04:53:37.025Z,965.52
2017-11-08T04:54:37.014Z,965.53
2017-11-08T04:55:37.010Z,965.49
2017-11-08T04:56:36.994Z,965.52
2017-11-08T04:57:36.991Z,965.54
2017-11-08T04:58:36.976Z,965.54
2017-11-08T04:59:36.966Z,965.55
2017-11-08T05:00:36.957Z,965.54
2017-11-08T05:01:36.947Z,965.53
2017-11-08T05:02:36.944Z,965.53
2017-11-08T05:03:36.929Z,965.55
2017-11-08T05:04:37.020Z,965.55
2017-11-08T05:05:36.908Z,965.57
2017-11-08T05:06:36.900Z,965.57
2017-11-08T05:07:36.890Z,965.55
2017-11-08T05:08:36.881Z,965.58
2017-11-08T05:09:36.871Z,965.57
2017-11-08T05:10:36.861Z,965.59
2017-11-08T05:11:36.851Z,965.57
2017-11-08T05:12:36.841Z,965.6
2017-11-08T05:13:36.832Z,965.56
2017-11-08T05:14:36.825Z,965.61
2017-11-08T05:15:36.817Z,965.58
2017-11-08T05:16:36.803Z,965.57
2017-11-08T05:17:36.791Z,965.58
2017-11-08T05:18:36.784Z,965.62
2017-11-08T05:19:36.775Z,965.61
2017-11-08T05:20:36.765Z,965.63
2017-11-08T05:21:36.754Z,965.62
2017-11-08T05:22:36.751Z,965.63
2017-11-08T05:23:36.740Z,965.66
2017-11-08T05:24:36.726Z,965.64
2017-11-08T05:25:36.716Z,965.63
2017-11-08T05:26:36.706Z,965.66
2017-11-08T05:27:36.696Z,965.66
2017-11-08T05:28:36.686Z,965.68
2017-11-08T05:29:36.677Z,965.68
2017-11-08T05:30:36.668Z,965.71
2017-11-08T05:31:36.658Z,965.73
2017-11-08T05:32:36.649Z,965.73
2017-11-08T05:33:36.640Z,965.72
2017-11-08T05:34:36.629Z,965.69
2017-11-08T05:35:36.618Z,965.73
2017-11-08T05:36:36.608Z,965.75
2017-11-08T05:37:36.601Z,965.71
2017-11-08T05:38:36.589Z,965.71
2017-11-08T05:39:36.581Z,965.68
2017-11-08T05:40:36.571Z,965.71
2017-11-08T05:41:36.562Z,965.73
2017-11-08T05:42:36.557Z,965.75
2017-11-08T05:43:36.543Z,965.74
2017-11-08T05:44:36.537Z,965.78
2017-11-08T05:45:36.522Z,965.78
2017-11-08T05:46:36.513Z,965.81
2017-11-08T05:47:36.504Z,965.79
2017-11-08T05:48:36.495Z,965.77
2017-11-08T05:49:36.484Z,965.81
2017-11-08T05:50:36.474Z,965.83
2017-11-08T05:51:36.464Z,965.79
2017-11-08T05:52:36.456Z,965.78
2017-11-08T05:53:36.446Z,965.78
2017-11-08T05:54:36.436Z,965.8
2017-11-08T05:55:36.427Z,965.82
2017-11-08T05:56:36.417Z,965.82
2017-11-08T05:57:36.406Z,965.81
2017-11-08T05:58:36.396Z,965.79
2017-11-08T05:59:36.388Z,965.83
2017-11-08T06:00:36.377Z,965.82
2017-11-08T06:01:36.367Z,965.8
2017-11-08T06:02:36.359Z,965.79
2017-11-08T06:03:36.354Z,965.8
2017-11-08T06:04:36.339Z,965.79
2017-11-08T06:05:36.329Z,965.83
2017-11-08T06:06:36.329Z,965.78
2017-11-08T06:07:36.317Z,965.82
2017-11-08T06:08:36.300Z,965.81
2017-11-08T06:09:36.291Z,965.84
2017-11-08T06:10:36.282Z,965.82
2017-11-08T06:11:36.278Z,965.88
2017-11-08T06:12:36.261Z,965.9
2017-11-08T06:13:36.251Z,965.92
2017-11-08T06:14:36.242Z,965.93
2017-11-08T06:15:36.233Z,965.92
2017-11-08T06:16:36.222Z,965.94
2017-11-08T06:17:36.214Z,965.94
2017-11-08T06:18:36.203Z,965.96
2017-11-08T06:19:36.193Z,965.95
2017-11-08T06:20:36.186Z,966.01
2017-11-08T06:21:36.175Z,966.01
2017-11-08T06:22:36.163Z,965.99
2017-11-08T06:23:36.154Z,965.99
2017-11-08T06:24:36.146Z,965.98
2017-11-08T06:25:36.136Z,965.97
2017-11-08T06:26:36.125Z,966
2017-11-08T06:27:36.115Z,966.01
2017-11-08T06:28:36.106Z,966.06
2017-11-08T06:29:36.096Z,966.09
2017-11-08T06:30:36.088Z,966.07
2017-11-08T06:31:36.077Z,966.08
2017-11-08T06:32:36.068Z,966.09
2017-11-08T06:33:36.057Z,966.11
2017-11-08T06:34:36.047Z,966.1
2017-11-08T06:35:36.039Z,966.15
2017-11-08T06:36:36.029Z,966.15
2017-11-08T06:37:36.023Z,966.16
2017-11-08T06:38:36.010Z,966.22
2017-11-08T06:39:36.001Z,966.23
2017-11-08T06:40:35.993Z,966.23
2017-11-08T06:41:35.979Z,966.25
2017-11-08T06:42:35.971Z,966.21
2017-11-08T06:43:35.962Z,966.23
2017-11-08T06:44:35.950Z,966.28
2017-11-08T06:45:35.943Z,966.33
2017-11-08T06:46:35.933Z,966.34
2017-11-08T06:47:35.922Z,966.29
2017-11-08T06:48:35.912Z,966.3
2017-11-08T06:49:35.903Z,966.3
2017-11-08T06:50:35.894Z,966.29
2017-11-08T06:51:35.883Z,966.32
2017-11-08T06:52:35.873Z,966.31
2017-11-08T06:53:35.865Z,966.36
2017-11-08T06:54:35.854Z,966.33
2017-11-08T06:55:35.846Z,966.42
2017-11-08T06:56:35.835Z,966.39
2017-11-08T06:57:35.825Z,966.41
2017-11-08T06:58:35.819Z,966.44
2017-11-08T06:59:35.806Z,966.47
2017-11-08T07:00:35.797Z,966.48
2017-11-08T07:01:35.787Z,966.51
2017-11-08T07:02:35.776Z,966.53
2017-11-08T07:03:35.767Z,966.56
2017-11-08T07:04:35.758Z,966.53
2017-11-08T07:05:35.748Z,966.51
2017-11-08T07:06:35.737Z,966.54
2017-11-08T07:07:35.727Z,966.59
2017-11-08T07:08:35.726Z,966.52
2017-11-08T07:09:35.709Z,966.58
2017-11-08T07:10:35.699Z,966.57
2017-11-08T07:11:35.690Z,966.58
2017-11-08T07:12:35.681Z,966.59
2017-11-08T07:13:35.670Z,966.61
2017-11-08T07:14:35.659Z,966.63
2017-11-08T07:15:35.652Z,966.63
2017-11-08T07:16:35.641Z,966.63
2017-11-08T07:17:35.632Z,966.68
2017-11-08T07:18:35.625Z,966.66
2017-11-08T07:19:35.611Z,966.72
2017-11-08T07:20:35.602Z,966.69
2017-11-08T07:21:35.593Z,966.72
2017-11-08T07:22:35.591Z,966.71
2017-11-08T07:23:35.573Z,966.74
2017-11-08T07:24:35.563Z,966.75
2017-11-08T07:25:35.559Z,966.73
2017-11-08T07:26:35.549Z,966.76
2017-11-08T07:27:35.535Z,966.78
2017-11-08T07:28:35.524Z,966.83
2017-11-08T07:29:35.521Z,966.8
2017-11-08T07:30:35.506Z,966.81
2017-11-08T07:31:35.494Z,966.79
2017-11-08T07:32:35.486Z,966.8
2017-11-08T07:33:35.476Z,966.79
2017-11-08T07:34:35.468Z,966.81
2017-11-08T07:35:35.457Z,966.82
2017-11-08T07:36:35.448Z,966.83
2017-11-08T07:37:35.440Z,966.82
2017-11-08T07:38:35.430Z,966.83
2017-11-08T07:39:35.418Z,966.8
2017-11-08T07:40:35.408Z,966.82
2017-11-08T07:41:35.412Z,966.82
2017-11-08T07:42:35.388Z,966.84
2017-11-08T07:43:35.380Z,966.8
2017-11-08T07:44:35.370Z,966.81
2017-11-08T07:45:35.361Z,966.86
2017-11-08T07:46:35.351Z,966.83
2017-11-08T07:47:35.340Z,966.85
2017-11-08T07:48:35.332Z,966.87
2017-11-08T07:49:35.323Z,966.82
2017-11-08T07:50:35.310Z,966.87
2017-11-08T07:51:35.303Z,966.89
2017-11-08T07:52:35.292Z,966.86
2017-11-08T07:53:35.320Z,966.87
2017-11-08T07:54:35.276Z,966.88
2017-11-08T07:55:35.264Z,966.88
2017-11-08T07:56:35.255Z,966.91
2017-11-08T07:57:35.244Z,966.9
2017-11-08T07:58:35.234Z,966.95
2017-11-08T07:59:35.226Z,966.91
2017-11-08T08:00:35.217Z,966.94
2017-11-08T08:01:35.205Z,966.91
2017-11-08T08:02:35.196Z,966.89
2017-11-08T08:03:35.187Z,966.93
2017-11-08T08:04:35.178Z,966.95
2017-11-08T08:05:35.168Z,966.92
2017-11-08T08:06:35.158Z,966.96
2017-11-08T08:07:35.149Z,966.93
2017-11-08T08:08:35.138Z,966.95
2017-11-08T08:09:35.135Z,966.94
2017-11-08T08:10:35.119Z,966.94
2017-11-08T08:11:35.114Z,966.91
2017-11-08T08:12:35.102Z,966.91
2017-11-08T08:13:35.091Z,966.92
2017-11-08T08:14:35.082Z,966.93
2017-11-08T08:15:35.071Z,966.91
2017-11-08T08:16:35.062Z,966.96
2017-11-08T08:17:35.052Z,966.96
2017-11-08T08:18:35.044Z,966.97
2017-11-08T08:19:35.033Z,966.98
2017-11-08T08:20:35.028Z,966.99
2017-11-08T08:21:35.014Z,966.99
2017-11-08T08:22:35.104Z,966.95
2017-11-08T08:23:34.995Z,966.96
2017-11-08T08:24:34.984Z,966.91
2017-11-08T08:25:34.976Z,966.92
2017-11-08T08:26:34.965Z,966.92
2017-11-08T08:27:34.956Z,966.91
2017-11-08T08:28:34.947Z,966.95
2017-11-08T08:29:34.938Z,966.93
2017-11-08T08:30:34.934Z,966.97
2017-11-08T08:31:34.917Z,967
2017-11-08T08:32:34.908Z,966.98
2017-11-08T08:33:34.897Z,967.01
2017-11-08T08:34:34.887Z,966.95
2017-11-08T08:35:34.880Z,966.99
2017-11-08T08:36:34.869Z,966.99
2017-11-08T08:37:34.858Z,966.98
2017-11-08T08:38:34.857Z,966.97
2017-11-08T08:39:34.842Z,966.99
2017-11-08T08:40:34.832Z,967.02
2017-11-08T08:41:34.821Z,967.02
2017-11-08T08:42:34.814Z,966.98
2017-11-08T08:43:34.802Z,967.01
2017-11-08T08:44:34.793Z,966.98
2017-11-08T08:45:34.783Z,966.99
2017-11-08T08:46:34.774Z,966.97
2017-11-08T08:47:34.764Z,967.01
2017-11-08T08:48:34.755Z,967.04
2017-11-08T08:49:34.746Z,966.98
2017-11-08T08:50:34.736Z,967.04
2017-11-08T08:51:34.729Z,967.06
2017-11-08T08:52:34.716Z,967.03
2017-11-08T08:53:34.708Z,967.03
2017-11-08T08:54:34.697Z,967
2017-11-08T08:55:34.687Z,967.08
2017-11-08T08:56:34.678Z,967.07
2017-11-08T08:57:34.669Z,967.02
2017-11-08T08:58:34.660Z,967.07
2017-11-08T08:59:34.647Z,967.07
2017-11-08T09:00:34.640Z,967.06
2017-11-08T09:01:34.630Z,967.1
2017-11-08T09:02:34.621Z,967.13
2017-11-08T09:03:34.610Z,967.11
2017-11-08T09:04:34.600Z,967.15
2017-11-08T09:05:34.591Z,967.11
2017-11-08T09:06:34.581Z,967.19
2017-11-08T09:07:34.577Z,967.11
2017-11-08T09:08:34.563Z,967.08
2017-11-08T09:09:34.553Z,967.08
2017-11-08T09:10:34.544Z,967.08
2017-11-08T09:11:34.633Z,967.05
2017-11-08T09:12:34.524Z,967
2017-11-08T09:13:34.522Z,967
2017-11-08T09:14:34.504Z,967
2017-11-08T09:15:34.497Z,967.03
2017-11-08T09:16:34.485Z,966.99
2017-11-08T09:17:34.487Z,966.99
2017-11-08T09:18:34.466Z,966.99
2017-11-08T09:19:34.458Z,967.01
2017-11-08T09:20:34.449Z,967.01
2017-11-08T09:21:34.441Z,967.01
2017-11-08T09:22:34.427Z,967
2017-11-08T09:23:34.421Z,967.01
2017-11-08T09:24:34.412Z,966.98
2017-11-08T09:25:34.404Z,967
2017-11-08T09:26:34.390Z,967.02
2017-11-08T09:27:34.380Z,966.96
2017-11-08T09:28:34.385Z,967
2017-11-08T09:29:34.362Z,966.98
2017-11-08T09:30:34.352Z,967.01
2017-11-08T09:31:34.343Z,966.99
2017-11-08T09:32:34.331Z,966.99
2017-11-08T09:33:34.324Z,967.02
2017-11-08T09:34:34.313Z,966.97
2017-11-08T09:35:34.310Z,966.97
2017-11-08T09:36:34.295Z,966.97
2017-11-08T09:37:34.285Z,967
2017-11-08T09:38:34.276Z,967
2017-11-08T09:39:34.266Z,967.04
2017-11-08T09:40:34.255Z,967
2017-11-08T09:41:34.254Z,967.02
2017-11-08T09:42:34.237Z,967.01
2017-11-08T09:43:34.227Z,967.01
2017-11-08T09:44:34.218Z,967.02
2017-11-08T09:45:34.209Z,967.05
2017-11-08T09:46:34.200Z,967.04
2017-11-08T09:47:34.191Z,967.07
2017-11-08T09:48:34.208Z,967.06
2017-11-08T09:49:34.171Z,967.06
2017-11-08T09:50:34.163Z,967.07
2017-11-08T09:51:34.151Z,967.05
2017-11-08T09:52:34.144Z,967.07
2017-11-08T09:53:34.133Z,967.09
2017-11-08T09:54:34.137Z,967.08
2017-11-08T09:55:34.114Z,967.09
2017-11-08T09:56:34.105Z,967.08
2017-11-08T09:57:34.095Z,967.12
2017-11-08T09:58:34.091Z,967.05
2017-11-08T09:59:34.105Z,967.09
2017-11-08T10:00:34.067Z,967.07
2017-11-08T10:01:34.056Z,967.09
2017-11-08T10:02:34.052Z,967.07
2017-11-08T10:03:34.038Z,967.05
2017-11-08T10:04:34.029Z,967.11
2017-11-08T10:05:34.018Z,967.11
2017-11-08T10:06:34.009Z,967.11
2017-11-08T10:07:33.999Z,967.09
2017-11-08T10:08:33.989Z,967.11
2017-11-08T10:09:33.986Z,967.15
2017-11-08T10:10:33.970Z,967.13
2017-11-08T10:11:33.962Z,967.13
2017-11-08T10:12:33.952Z,967.19
2017-11-08T10:13:33.943Z,967.17
2017-11-08T10:14:33.942Z,967.18
2017-11-08T10:15:33.924Z,967.17
2017-11-08T10:16:33.913Z,967.19
2017-11-08T10:17:33.927Z,967.15
2017-11-08T10:18:33.895Z,967.15
2017-11-08T10:19:33.985Z,967.18
2017-11-08T10:20:33.875Z,967.15
2017-11-08T10:21:33.872Z,967.16
2017-11-08T10:22:33.863Z,967.19
2017-11-08T10:23:33.846Z,967.23
2017-11-08T10:24:33.838Z,967.24
2017-11-08T10:25:33.829Z,967.24
2017-11-08T10:26:33.820Z,967.27
2017-11-08T10:27:33.813Z,967.24
2017-11-08T10:28:33.800Z,967.28
2017-11-08T10:29:33.791Z,967.24
2017-11-08T10:30:33.780Z,967.23
2017-11-08T10:31:33.771Z,967.27
2017-11-08T10:32:33.762Z,967.23
2017-11-08T10:33:33.753Z,967.24
2017-11-08T10:34:33.742Z,967.22
2017-11-08T10:35:33.733Z,967.21
2017-11-08T10:36:33.723Z,967.23
2017-11-08T10:37:33.714Z,967.25
2017-11-08T10:38:33.704Z,967.22
2017-11-08T10:39:33.695Z,967.25
2017-11-08T10:40:33.691Z,967.25
2017-11-08T10:41:33.676Z,967.22
2017-11-08T10:42:33.633Z,967.25
2017-11-08T10:43:33.621Z,967.28
2017-11-08T10:44:33.613Z,967.23
2017-11-08T10:45:33.603Z,967.22
2017-11-08T10:46:33.593Z,967.25
2017-11-08T10:47:33.584Z,967.26
2017-11-08T10:48:33.579Z,967.24
2017-11-08T10:49:33.563Z,967.22
2017-11-08T10:50:33.555Z,967.23
2017-11-08T10:51:33.552Z,967.2
2017-11-08T10:52:33.536Z,967.22
2017-11-08T10:53:33.529Z,967.18
2017-11-08T10:54:33.516Z,967.18
2017-11-08T10:55:33.507Z,967.2
2017-11-08T10:56:33.496Z,967.18
2017-11-08T10:57:33.489Z,967.17
2017-11-08T10:58:33.478Z,967.17
2017-11-08T10:59:33.468Z,967.19
2017-11-08T11:00:33.459Z,967.2
2017-11-08T11:01:33.449Z,967.19
2017-11-08T11:02:33.440Z,967.21
2017-11-08T11:03:33.432Z,967.22
2017-11-08T11:04:33.421Z,967.2
2017-11-08T11:05:33.413Z,967.18
2017-11-08T11:06:33.405Z,967.15
2017-11-08T11:07:33.392Z,967.16
2017-11-08T11:08:33.393Z,967.13
2017-11-08T11:09:33.376Z,967.15
2017-11-08T11:10:33.367Z,967.14
2017-11-08T11:11:33.359Z,967.11
2017-11-08T11:12:33.347Z,967.13
2017-11-08T11:13:33.339Z,967.11
2017-11-08T11:14:33.328Z,967.11
2017-11-08T11:15:33.328Z,967.11
2017-11-08T11:16:33.310Z,967.1
2017-11-08T11:17:33.301Z,967.12
2017-11-08T11:18:33.291Z,967.15
2017-11-08T11:19:33.283Z,967.14
2017-11-08T11:20:33.274Z,967.14
2017-11-08T11:21:33.265Z,967.12
2017-11-08T11:22:33.258Z,967.16
2017-11-08T11:23:33.263Z,967.16
2017-11-08T11:24:33.243Z,967.14
2017-11-08T11:25:33.229Z,967.15
2017-11-08T11:26:33.235Z,967.14
2017-11-08T11:27:33.211Z,967.13
2017-11-08T11:28:33.202Z,967.15
2017-11-08T11:29:33.194Z,967.11
2017-11-08T11:30:33.187Z,967.13
2017-11-08T11:31:33.175Z,967.15
2017-11-08T11:32:33.173Z,967.18
2017-11-08T11:33:33.158Z,967.13
2017-11-08T11:34:33.159Z,967.11
2017-11-08T11:35:33.140Z,967.16
2017-11-08T11:36:33.128Z,967.15
2017-11-08T11:37:33.124Z,967.16
2017-11-08T11:38:33.113Z,967.14
2017-11-08T11:39:33.102Z,967.12
2017-11-08T11:40:33.093Z,967.15
2017-11-08T11:41:33.083Z,967.15
2017-11-08T11:42:33.075Z,967.18
2017-11-08T11:43:33.066Z,967.17
2017-11-08T11:44:33.057Z,967.18
2017-11-08T11:45:33.046Z,967.12
2017-11-08T11:46:33.040Z,967.14
2017-11-08T11:47:33.034Z,967.15
2017-11-08T11:48:33.021Z,967.14
2017-11-08T11:49:33.013Z,967.18
2017-11-08T11:50:33.003Z,967.19
2017-11-08T11:51:32.992Z,967.18
2017-11-08T11:52:32.984Z,967.16
2017-11-08T11:53:32.975Z,967.18
2017-11-08T11:54:32.964Z,967.24
2017-11-08T11:55:32.957Z,967.24
2017-11-08T11:56:32.954Z,967.26
2017-11-08T11:57:32.938Z,967.24
2017-11-08T11:58:32.937Z,967.25
2017-11-08T11:59:32.919Z,967.28
2017-11-08T12:00:32.911Z,967.28
2017-11-08T12:01:32.901Z,967.28
2017-11-08T12:02:32.898Z,967.28
2017-11-08T12:03:32.889Z,967.3
2017-11-08T12:04:32.875Z,967.34
2017-11-08T12:05:32.865Z,967.29
2017-11-08T12:06:32.859Z,967.36
2017-11-08T12:07:32.847Z,967.32
2017-11-08T12:08:32.837Z,967.33
2017-11-08T12:09:32.829Z,967.35
2017-11-08T12:10:32.824Z,967.35
2017-11-08T12:11:32.810Z,967.32
2017-11-08T12:12:32.801Z,967.33
2017-11-08T12:13:32.791Z,967.33
2017-11-08T12:14:32.785Z,967.38
2017-11-08T12:15:32.773Z,967.33
2017-11-08T12:16:32.764Z,967.38
2017-11-08T12:17:32.756Z,967.38
2017-11-08T12:18:32.747Z,967.34
2017-11-08T12:19:32.737Z,967.38
2017-11-08T12:20:32.727Z,967.39
2017-11-08T12:21:32.718Z,967.4
2017-11-08T12:22:32.710Z,967.41
2017-11-08T12:23:32.799Z,967.42
2017-11-08T12:24:32.690Z,967.45
2017-11-08T12:25:32.681Z,967.43
2017-11-08T12:26:32.671Z,967.46
2017-11-08T12:27:32.664Z,967.47
2017-11-08T12:28:32.653Z,967.41
2017-11-08T12:29:32.645Z,967.43
2017-11-08T12:30:32.635Z,967.45
2017-11-08T12:31:32.634Z,967.43